Time;durP1;ratioP1;P1;durP2;ratioP2;P2;SDS_P1;SDS_P2;PMS_P1;PMS_P2;Temp;Humidity;BMP_temperature;BMP_pressure;BME280_temperature;BME280_humidity;BME280_pressure;Samples;Min_cycle;Max_cycle;Signal;HPM_P1;HPM_P2
2023/10/25 00:02:15;;;;;;;5.63;2.55;;;10.40;99.90;;;;;;5054139;28;20179;-63
2023/10/25 00:04:41;;;;;;;4.75;2.38;;;10.40;99.90;;;;;;5053918;28;20179;-66
2023/10/25 00:07:07;;;;;;;4.25;2.90;;;10.50;99.90;;;;;;5054181;28;20173;-66
2023/10/25 00:09:33;;;;;;;5.03;2.35;;;10.50;99.90;;;;;;5054051;28;20612;-66
2023/10/25 00:11:59;;;;;;;6.40;2.58;;;10.60;99.90;;;;;;5053963;28;20163;-65
2023/10/25 00:14:24;;;;;;;5.43;2.42;;;10.60;99.90;;;;;;5054255;28;20222;-65
2023/10/25 00:16:50;;;;;;;4.32;2.83;;;10.50;99.90;;;;;;5053746;28;20189;-65
2023/10/25 00:19:16;;;;;;;5.72;2.38;;;10.50;99.90;;;;;;5053686;28;20183;-65
2023/10/25 00:21:42;;;;;;;4.65;2.65;;;10.60;99.90;;;;;;5054044;28;20556;-65
2023/10/25 00:24:07;;;;;;;7.10;2.72;;;10.70;99.90;;;;;;5053979;28;20175;-65
2023/10/25 00:26:33;;;;;;;5.78;3.38;;;10.70;99.90;;;;;;5053837;28;20178;-65
2023/10/25 00:28:59;;;;;;;6.78;2.92;;;10.70;99.90;;;;;;5053595;28;20194;-65
2023/10/25 00:31:25;;;;;;;4.07;2.97;;;10.80;99.90;;;;;;5053480;28;20624;-65
2023/10/25 00:33:51;;;;;;;6.63;3.42;;;10.90;99.90;;;;;;5053404;28;20191;-65
2023/10/25 00:36:17;;;;;;;5.20;3.00;;;10.80;99.90;;;;;;5053376;28;20182;-65
2023/10/25 00:38:43;;;;;;;7.32;3.40;;;10.90;99.90;;;;;;5053692;28;20171;-63
2023/10/25 00:41:09;;;;;;;4.07;2.80;;;10.90;99.90;;;;;;5053522;28;20198;-65
2023/10/25 00:43:35;;;;;;;5.40;2.97;;;10.90;99.90;;;;;;5053569;28;20183;-65
2023/10/25 00:46:04;;;;;;;4.57;3.08;;;10.90;99.90;;;;;;5052257;28;20490;-65
2023/10/25 00:48:31;;;;;;;5.20;3.35;;;10.90;99.90;;;;;;5053147;28;20175;-65
2023/10/25 00:50:58;;;;;;;6.22;3.15;;;10.90;99.90;;;;;;5053387;28;20175;-66
2023/10/25 00:53:25;;;;;;;5.80;3.08;;;10.90;99.90;;;;;;5053307;28;20163;-66
2023/10/25 00:55:55;;;;;;;8.15;3.28;;;11.00;99.90;;;;;;5053393;28;20182;-65
2023/10/25 00:58:22;;;;;;;8.27;3.10;;;11.00;99.90;;;;;;5053447;28;20193;-65
2023/10/25 01:00:49;;;;;;;7.32;3.35;;;11.00;99.90;;;;;;5052434;28;20171;-65
2023/10/25 01:03:16;;;;;;;7.80;3.55;;;11.00;99.90;;;;;;5053350;28;20179;-65
2023/10/25 01:05:43;;;;;;;4.35;3.00;;;11.00;99.90;;;;;;5053344;28;20163;-65
2023/10/25 01:08:09;;;;;;;7.18;3.17;;;11.00;99.90;;;;;;5053221;28;20167;-64
2023/10/25 01:10:35;;;;;;;6.03;3.00;;;11.00;99.90;;;;;;5053160;28;20179;-64
2023/10/25 01:13:02;;;;;;;8.60;2.95;;;11.00;99.90;;;;;;5053100;28;20708;-65
2023/10/25 01:15:27;;;;;;;4.57;2.75;;;11.00;99.90;;;;;;5053038;28;20203;-65
2023/10/25 01:17:53;;;;;;;4.50;2.75;;;11.00;99.90;;;;;;5053088;28;20170;-64
2023/10/25 01:20:19;;;;;;;5.50;2.67;;;11.00;99.90;;;;;;5052971;28;20219;-66
2023/10/25 01:22:48;;;;;;;5.18;3.10;;;11.00;99.90;;;;;;5052991;28;20217;-64
2023/10/25 01:25:14;;;;;;;5.22;2.70;;;11.10;99.90;;;;;;5053074;28;20175;-64
2023/10/25 01:27:39;;;;;;;5.38;2.88;;;11.10;99.90;;;;;;5052986;28;20197;-64
2023/10/25 01:30:06;;;;;;;6.93;2.60;;;11.10;99.90;;;;;;5052917;28;20175;-64
2023/10/25 01:32:32;;;;;;;4.55;2.55;;;11.00;99.90;;;;;;5051878;28;20530;-64
2023/10/25 01:34:58;;;;;;;4.38;2.60;;;11.00;99.90;;;;;;5052995;28;20203;-65
2023/10/25 01:37:23;;;;;;;8.88;2.85;;;11.10;99.90;;;;;;5052874;28;20171;-65
2023/10/25 01:39:49;;;;;;;5.15;2.65;;;11.10;99.90;;;;;;5052826;28;20174;-65
2023/10/25 01:42:14;;;;;;;6.22;2.60;;;11.00;99.90;;;;;;5052803;28;20617;-64
2023/10/25 01:44:40;;;;;;;3.72;2.30;;;11.00;99.90;;;;;;5052777;28;20171;-64
2023/10/25 01:47:06;;;;;;;5.82;2.70;;;11.00;99.90;;;;;;5052996;28;20206;-64
2023/10/25 01:49:31;;;;;;;7.07;2.50;;;11.10;99.90;;;;;;5052905;28;20195;-64
2023/10/25 01:51:57;;;;;;;5.93;2.58;;;11.10;99.90;;;;;;5052686;28;20226;-65
2023/10/25 01:54:23;;;;;;;5.15;2.20;;;11.10;99.90;;;;;;5052591;28;20195;-65
2023/10/25 01:56:49;;;;;;;3.63;2.13;;;11.10;99.90;;;;;;5052848;28;20632;-65
2023/10/25 01:59:15;;;;;;;5.25;2.45;;;11.20;99.90;;;;;;5052632;28;20187;-64
2023/10/25 02:01:40;;;;;;;5.05;2.75;;;11.20;99.90;;;;;;5052847;28;20171;-64
2023/10/25 02:04:07;;;;;;;4.80;2.70;;;11.20;99.90;;;;;;5052827;28;20263;-64
2023/10/25 02:06:33;;;;;;;6.18;2.50;;;11.20;99.90;;;;;;5052653;28;20266;-64
2023/10/25 02:08:58;;;;;;;4.47;2.10;;;11.20;99.90;;;;;;5052638;28;20267;-64
2023/10/25 02:11:24;;;;;;;5.70;2.70;;;11.20;99.90;;;;;;5052559;28;20609;-65
2023/10/25 02:13:50;;;;;;;5.75;2.60;;;11.20;99.90;;;;;;5055312;28;20281;-64
2023/10/25 02:16:18;;;;;;;5.35;2.10;;;11.30;99.90;;;;;;5056009;28;20639;-65
2023/10/25 02:18:44;;;;;;;5.78;2.20;;;11.20;99.90;;;;;;5056249;28;20176;-64
2023/10/25 02:21:10;;;;;;;4.07;2.03;;;11.20;99.90;;;;;;5056090;28;20222;-64
2023/10/25 02:23:36;;;;;;;6.95;2.50;;;11.20;99.90;;;;;;5056019;28;20175;-64
2023/10/25 02:26:02;;;;;;;2.97;2.40;;;11.20;99.90;;;;;;5055991;28;20171;-64
2023/10/25 02:28:27;;;;;;;5.50;2.40;;;11.30;99.90;;;;;;5055848;28;20174;-62
2023/10/25 02:30:53;;;;;;;4.20;2.00;;;11.20;99.90;;;;;;5055821;28;20237;-64
2023/10/25 02:33:19;;;;;;;4.82;2.38;;;11.20;99.90;;;;;;5055894;28;20179;-65
2023/10/25 02:35:44;;;;;;;5.20;2.63;;;11.20;99.90;;;;;;5055714;28;20528;-65
2023/10/25 02:38:10;;;;;;;4.28;2.10;;;11.20;99.90;;;;;;5055833;28;20170;-64
2023/10/25 02:40:36;;;;;;;4.53;2.40;;;11.20;99.90;;;;;;5055727;28;20567;-65
2023/10/25 02:43:02;;;;;;;4.18;2.38;;;11.30;99.90;;;;;;5055608;28;20228;-65
2023/10/25 02:45:28;;;;;;;5.57;2.50;;;11.30;99.90;;;;;;5055430;28;20172;-63
2023/10/25 02:47:57;;;;;;;6.03;2.60;;;11.20;99.90;;;;;;5055676;28;20639;-64
2023/10/25 02:50:22;;;;;;;7.55;2.80;;;11.30;99.90;;;;;;5055503;28;20163;-64
2023/10/25 02:52:48;;;;;;;5.03;2.50;;;11.20;99.90;;;;;;5055472;28;20229;-64
2023/10/25 02:55:17;;;;;;;4.03;2.22;;;11.20;99.90;;;;;;5055159;28;20652;-64
2023/10/25 02:57:43;;;;;;;3.38;2.40;;;11.20;99.90;;;;;;5055191;28;20171;-65
2023/10/25 03:00:10;;;;;;;4.38;2.40;;;11.30;99.90;;;;;;5055472;28;20182;-65
2023/10/25 03:02:36;;;;;;;5.10;2.63;;;11.30;99.90;;;;;;5054308;28;20637;-64
2023/10/25 03:05:02;;;;;;;6.63;2.58;;;11.30;99.90;;;;;;5055338;28;20183;-63
2023/10/25 03:07:28;;;;;;;4.75;2.50;;;11.30;99.90;;;;;;5055088;28;20182;-64
2023/10/25 03:09:54;;;;;;;4.95;2.42;;;11.30;99.90;;;;;;5055107;28;20163;-64
2023/10/25 03:12:19;;;;;;;5.15;2.90;;;11.30;99.90;;;;;;5055028;28;20167;-64
2023/10/25 03:14:45;;;;;;;4.68;2.60;;;11.20;99.90;;;;;;5054852;28;20198;-65
2023/10/25 03:17:11;;;;;;;5.85;2.90;;;11.30;99.90;;;;;;5055287;28;20179;-65
2023/10/25 03:19:36;;;;;;;7.15;2.83;;;11.30;99.90;;;;;;5055087;28;20179;-64
2023/10/25 03:22:03;;;;;;;5.47;2.47;;;11.30;99.90;;;;;;5054954;28;20219;-64
2023/10/25 03:24:29;;;;;;;5.50;2.63;;;11.30;99.90;;;;;;5054092;28;20526;-65
2023/10/25 03:26:56;;;;;;;6.57;2.40;;;11.30;99.90;;;;;;5054653;28;20899;-64
2023/10/25 03:29:22;;;;;;;4.05;2.40;;;11.20;99.90;;;;;;5055000;28;20171;-65
2023/10/25 03:31:47;;;;;;;6.50;2.50;;;11.30;99.90;;;;;;5037023;28;20290;-64
2023/10/25 03:34:14;;;;;;;5.72;2.67;;;11.20;99.90;;;;;;5054674;28;20692;-65
2023/10/25 03:36:40;;;;;;;6.25;2.63;;;11.20;99.90;;;;;;5054589;28;20187;-64
2023/10/25 03:39:06;;;;;;;4.40;2.53;;;11.20;99.90;;;;;;5054654;28;20171;-64
2023/10/25 03:41:32;;;;;;;7.18;2.50;;;11.30;99.90;;;;;;5054421;28;20182;-64
2023/10/25 03:43:58;;;;;;;5.97;2.85;;;11.20;99.90;;;;;;5054725;28;20172;-65
2023/10/25 03:46:24;;;;;;;5.00;2.47;;;11.10;99.90;;;;;;5054553;28;20193;-65
2023/10/25 03:48:49;;;;;;;6.03;3.08;;;11.10;99.90;;;;;;5054533;28;20232;-64
2023/10/25 03:51:15;;;;;;;4.50;2.70;;;11.10;99.90;;;;;;5054411;28;20250;-65
2023/10/25 03:53:40;;;;;;;4.22;2.50;;;11.00;99.90;;;;;;5054265;28;20203;-64
2023/10/25 03:56:06;;;;;;;5.53;2.72;;;11.10;99.90;;;;;;5054136;28;20524;-64
2023/10/25 03:58:32;;;;;;;4.20;2.80;;;11.10;99.90;;;;;;5054401;28;20585;-66
2023/10/25 04:01:03;;;;;;;3.80;2.50;;;11.10;99.90;;;;;;5054401;28;20176;-65
2023/10/25 04:03:29;;;;;;;4.28;2.85;;;11.10;99.90;;;;;;5054305;28;20254;-64
2023/10/25 04:05:55;;;;;;;5.30;2.75;;;11.10;99.90;;;;;;5054059;28;20179;-65
2023/10/25 04:08:21;;;;;;;4.90;2.35;;;11.10;99.90;;;;;;5053939;28;20175;-64
2023/10/25 04:10:55;;;;;;;3.20;2.55;;;11.00;99.90;;;;;;5053859;28;20274;-64
2023/10/25 04:13:21;;;;;;;7.10;2.58;;;11.00;99.90;;;;;;5053988;28;20167;-65
2023/10/25 04:16:04;;;;;;;9.27;2.80;;;11.00;99.90;;;;;;5053775;28;20635;-64
2023/10/25 04:18:31;;;;;;;5.50;2.45;;;11.00;99.90;;;;;;5053964;28;20167;-64
2023/10/25 04:20:58;;;;;;;5.55;2.58;;;11.00;99.90;;;;;;5053758;28;20219;-65
2023/10/25 04:23:25;;;;;;;7.10;2.47;;;11.00;99.90;;;;;;5053576;28;20178;-65
2023/10/25 04:25:51;;;;;;;6.00;2.42;;;11.00;99.90;;;;;;5053166;28;20222;-65
2023/10/25 04:28:18;;;;;;;5.80;2.65;;;11.00;99.90;;;;;;5052994;28;20229;-64
2023/10/25 04:30:47;;;;;;;6.80;2.55;;;11.00;99.90;;;;;;5052562;28;20171;-64
2023/10/25 04:33:12;;;;;;;7.53;2.40;;;11.00;99.90;;;;;;5052243;28;20172;-65
2023/10/25 04:35:38;;;;;;;6.10;2.50;;;11.00;99.90;;;;;;5052847;28;20218;-64
2023/10/25 04:38:03;;;;;;;3.83;2.35;;;11.00;99.90;;;;;;5052496;28;20643;-62
2023/10/25 04:40:31;;;;;;;4.10;2.20;;;11.00;99.90;;;;;;5053602;28;20182;-64
2023/10/25 04:42:56;;;;;;;4.47;2.50;;;11.00;99.90;;;;;;5053692;28;20174;-65
2023/10/25 04:45:22;;;;;;;4.05;2.20;;;11.00;99.90;;;;;;5052225;28;20183;-64
2023/10/25 04:47:51;;;;;;;2.72;2.00;;;11.00;99.90;;;;;;5053341;28;20607;-64
2023/10/25 04:50:23;;;;;;;6.10;2.33;;;11.00;99.90;;;;;;5053179;28;20198;-64
2023/10/25 04:52:49;;;;;;;4.53;2.03;;;10.90;99.90;;;;;;5053469;28;20617;-64
2023/10/25 04:55:15;;;;;;;3.65;2.03;;;11.00;99.90;;;;;;5053271;28;20229;-64
2023/10/25 04:57:41;;;;;;;3.08;1.83;;;11.00;99.90;;;;;;5053271;28;20229;-64
2023/10/25 05:00:09;;;;;;;3.55;2.13;;;11.00;99.90;;;;;;5053237;28;20175;-64
2023/10/25 05:02:36;;;;;;;5.45;2.20;;;11.00;99.90;;;;;;5053044;28;20202;-65
2023/10/25 05:05:02;;;;;;;6.38;2.28;;;11.00;99.90;;;;;;5052897;28;20211;-65
2023/10/25 05:07:28;;;;;;;4.90;2.20;;;11.00;99.90;;;;;;5052991;28;20671;-63
2023/10/25 05:09:54;;;;;;;4.82;2.30;;;11.00;99.90;;;;;;5053198;28;20182;-65
2023/10/25 05:12:30;;;;;;;7.55;2.13;;;11.00;99.90;;;;;;5053118;28;20301;-65
2023/10/25 05:14:56;;;;;;;5.38;1.75;;;11.00;99.90;;;;;;5051741;28;20667;-65
2023/10/25 05:17:22;;;;;;;3.28;1.88;;;11.00;99.90;;;;;;5052925;28;20180;-65
2023/10/25 05:19:48;;;;;;;4.30;1.85;;;11.00;99.90;;;;;;5052852;28;20198;-65
2023/10/25 05:22:15;;;;;;;5.57;1.80;;;11.00;99.90;;;;;;5052688;28;20223;-65
2023/10/25 05:24:41;;;;;;;3.60;2.20;;;11.10;99.90;;;;;;5053042;28;20513;-64
2023/10/25 05:27:07;;;;;;;4.88;2.10;;;11.00;99.90;;;;;;5053028;28;20179;-65
2023/10/25 05:29:33;;;;;;;5.15;2.17;;;11.10;99.90;;;;;;5052829;28;20655;-65
2023/10/25 05:32:03;;;;;;;5.40;2.10;;;11.00;99.90;;;;;;5052859;28;20179;-65
2023/10/25 05:34:29;;;;;;;4.10;1.90;;;11.00;99.90;;;;;;5052838;28;20237;-65
2023/10/25 05:36:55;;;;;;;4.07;2.22;;;11.00;99.90;;;;;;5052998;28;20176;-65
2023/10/25 05:39:21;;;;;;;4.43;2.20;;;11.10;99.90;;;;;;5052969;28;20620;-65
2023/10/25 05:41:50;;;;;;;3.33;1.70;;;11.00;99.90;;;;;;5052851;28;20163;-65
2023/10/25 05:44:16;;;;;;;5.35;1.95;;;11.00;99.90;;;;;;5052663;28;20176;-63
2023/10/25 05:46:42;;;;;;;5.40;2.08;;;11.00;99.90;;;;;;5052636;28;20182;-64
2023/10/25 05:49:08;;;;;;;3.92;2.13;;;11.00;99.90;;;;;;5056068;28;20228;-65
2023/10/25 05:51:34;;;;;;;4.47;2.22;;;11.10;99.90;;;;;;5056819;28;20209;-65
2023/10/25 05:54:00;;;;;;;5.20;2.17;;;11.00;99.90;;;;;;5056567;28;20304;-65
2023/10/25 05:56:26;;;;;;;4.38;2.35;;;11.00;99.90;;;;;;5056504;28;20651;-65
2023/10/25 05:58:54;;;;;;;4.07;2.22;;;11.00;99.90;;;;;;5056297;28;20176;-65
2023/10/25 06:01:38;;;;;;;3.92;2.05;;;11.00;99.90;;;;;;5056305;28;20704;-66
2023/10/25 06:04:05;;;;;;;3.67;2.03;;;11.00;99.90;;;;;;5056478;28;20228;-64
2023/10/25 06:06:35;;;;;;;3.20;1.88;;;11.00;99.90;;;;;;5056441;28;20600;-66
2023/10/25 06:09:01;;;;;;;2.97;1.98;;;11.00;99.90;;;;;;5056267;28;20178;-65
2023/10/25 06:11:27;;;;;;;2.17;1.90;;;10.90;99.90;;;;;;5056218;28;20175;-65
2023/10/25 06:13:53;;;;;;;4.30;2.20;;;11.00;99.90;;;;;;5055973;28;20199;-65
2023/10/25 06:16:18;;;;;;;4.07;2.25;;;10.90;99.90;;;;;;5056252;28;20183;-65
2023/10/25 06:18:44;;;;;;;2.83;2.25;;;11.00;99.90;;;;;;5056137;28;20278;-65
2023/10/25 06:21:10;;;;;;;3.03;2.25;;;11.00;99.90;;;;;;5055805;28;20218;-65
2023/10/25 06:23:35;;;;;;;2.83;2.03;;;11.00;99.90;;;;;;5056002;28;20184;-65
2023/10/25 06:26:03;;;;;;;4.90;2.55;;;10.90;99.90;;;;;;5056005;28;20234;-65
2023/10/25 06:28:29;;;;;;;3.88;2.53;;;10.90;99.90;;;;;;5055768;28;20168;-64
2023/10/25 06:30:54;;;;;;;3.45;2.20;;;11.00;99.90;;;;;;5055987;28;20171;-65
2023/10/25 06:33:20;;;;;;;6.13;2.60;;;11.00;99.90;;;;;;5055811;28;20608;-65
2023/10/25 06:35:46;;;;;;;3.25;1.77;;;10.90;99.90;;;;;;5055757;28;20219;-65
2023/10/25 06:38:12;;;;;;;5.57;2.22;;;10.90;99.90;;;;;;5055738;28;20245;-65
2023/10/25 06:40:38;;;;;;;6.63;2.30;;;10.90;99.90;;;;;;5055600;28;20179;-65
2023/10/25 06:43:04;;;;;;;4.70;2.20;;;10.90;99.90;;;;;;5055533;28;20712;-65
2023/10/25 06:45:30;;;;;;;3.90;1.90;;;10.90;99.90;;;;;;5055678;28;20279;-65
2023/10/25 06:47:56;;;;;;;3.58;2.17;;;10.80;99.90;;;;;;5055615;28;20266;-65
2023/10/25 06:50:25;;;;;;;3.67;2.08;;;10.80;99.90;;;;;;5055544;28;20645;-65
2023/10/25 06:52:51;;;;;;;4.97;2.00;;;10.80;99.90;;;;;;5055498;28;20207;-66
2023/10/25 06:55:17;;;;;;;4.45;3.17;;;10.80;99.90;;;;;;5055304;28;20199;-64
2023/10/25 06:57:43;;;;;;;5.50;2.03;;;10.80;99.90;;;;;;5055220;28;20180;-65
2023/10/25 07:00:09;;;;;;;2.88;1.73;;;10.80;99.90;;;;;;5054166;28;20237;-65
2023/10/25 07:02:48;;;;;;;4.00;2.13;;;10.80;99.90;;;;;;5055334;28;20248;-65
2023/10/25 07:05:15;;;;;;;3.65;1.95;;;10.80;99.90;;;;;;5055188;28;20167;-65
2023/10/25 07:07:43;;;;;;;4.70;3.88;;;10.80;99.90;;;;;;5055095;28;20167;-64
2023/10/25 07:10:10;;;;;;;3.40;2.47;;;10.70;99.90;;;;;;5054952;28;20186;-65
2023/10/25 07:12:36;;;;;;;4.13;2.95;;;10.80;99.90;;;;;;5055227;28;20176;-65
2023/10/25 07:15:02;;;;;;;4.15;2.10;;;10.80;99.90;;;;;;5055282;28;20214;-65
2023/10/25 07:17:28;;;;;;;3.47;2.13;;;10.90;99.90;;;;;;5054995;28;20266;-64
2023/10/25 07:19:54;;;;;;;5.10;3.00;;;10.80;99.90;;;;;;5054812;28;20266;-65
2023/10/25 07:22:20;;;;;;;3.80;3.40;;;10.70;99.90;;;;;;5054932;28;20641;-64
2023/10/25 07:24:45;;;;;;;3.88;2.35;;;10.70;99.90;;;;;;5054747;28;20262;-64
2023/10/25 07:27:12;;;;;;;5.90;3.05;;;10.70;99.90;;;;;;5054800;28;20284;-64
2023/10/25 07:29:39;;;;;;;4.28;2.83;;;10.70;99.90;;;;;;5054864;28;20644;-65
2023/10/25 07:32:05;;;;;;;4.40;3.50;;;10.70;99.90;;;;;;5054750;28;20193;-64
2023/10/25 07:34:31;;;;;;;17.52;15.82;;;10.80;99.90;;;;;;5054643;28;20285;-64
2023/10/25 07:36:56;;;;;;;7.93;7.13;;;10.70;99.90;;;;;;5054563;28;20577;-65
2023/10/25 07:39:22;;;;;;;5.25;4.70;;;10.70;99.90;;;;;;5054454;28;20285;-65
2023/10/25 07:41:48;;;;;;;20.80;19.35;;;10.70;99.90;;;;;;5054563;28;20628;-65
2023/10/25 07:44:13;;;;;;;6.13;4.85;;;10.70;99.90;;;;;;5054597;28;20176;-65
2023/10/25 07:46:39;;;;;;;3.78;3.30;;;10.70;99.90;;;;;;5054482;28;20212;-64
2023/10/25 07:49:05;;;;;;;3.70;2.20;;;10.70;99.90;;;;;;5054329;28;20205;-65
2023/10/25 07:51:30;;;;;;;4.10;3.45;;;10.70;99.90;;;;;;5054323;28;20624;-64
2023/10/25 07:53:56;;;;;;;5.10;4.47;;;10.70;99.90;;;;;;5054049;28;20213;-65
2023/10/25 07:56:23;;;;;;;4.43;2.33;;;10.80;99.90;;;;;;5054142;28;20180;-65
2023/10/25 07:58:50;;;;;;;4.55;2.45;;;10.80;99.90;;;;;;5054270;28;20175;-65
2023/10/25 08:01:15;;;;;;;4.13;2.60;;;10.80;99.90;;;;;;5054130;28;20211;-63
2023/10/25 08:03:41;;;;;;;5.45;2.60;;;10.80;99.90;;;;;;5054108;28;20253;-64
2023/10/25 08:06:07;;;;;;;5.40;2.45;;;10.80;99.90;;;;;;5054046;28;20601;-65
2023/10/25 08:08:33;;;;;;;6.30;2.70;;;10.80;99.90;;;;;;5053918;28;20571;-65
2023/10/25 08:11:04;;;;;;;7.15;3.10;;;10.80;99.90;;;;;;5053480;28;20172;-64
2023/10/25 08:13:32;;;;;;;16.00;14.38;;;10.80;99.90;;;;;;5053987;28;20221;-64
2023/10/25 08:16:01;;;;;;;5.30;2.85;;;10.70;99.90;;;;;;5053867;28;20179;-65
2023/10/25 08:18:28;;;;;;;5.28;2.88;;;10.80;99.90;;;;;;5053812;28;20164;-64
2023/10/25 08:20:55;;;;;;;3.42;2.50;;;10.80;99.90;;;;;;5053806;28;20247;-65
2023/10/25 08:23:20;;;;;;;4.72;2.83;;;10.90;99.90;;;;;;5053648;28;20172;-65
2023/10/25 08:25:46;;;;;;;4.43;4.03;;;10.80;99.90;;;;;;5053593;28;20186;-67
2023/10/25 08:28:12;;;;;;;3.72;2.60;;;10.70;99.90;;;;;;5053793;28;20258;-64
2023/10/25 08:30:37;;;;;;;4.07;2.50;;;10.70;99.90;;;;;;5053704;28;20210;-64
2023/10/25 08:33:03;;;;;;;5.07;2.35;;;10.70;99.90;;;;;;5053572;28;20503;-65
2023/10/25 08:35:29;;;;;;;5.28;2.50;;;10.60;99.90;;;;;;5053404;28;20230;-64
2023/10/25 08:37:54;;;;;;;4.60;2.47;;;10.60;99.90;;;;;;5053377;28;20206;-65
2023/10/25 08:40:20;;;;;;;4.93;2.22;;;10.70;99.90;;;;;;5053550;28;20213;-64
2023/10/25 08:42:46;;;;;;;3.10;2.67;;;10.70;99.90;;;;;;5053505;28;20182;-64
2023/10/25 08:45:14;;;;;;;4.00;2.67;;;10.70;99.90;;;;;;5053503;28;20289;-65
2023/10/25 08:47:40;;;;;;;2.45;2.17;;;10.80;99.90;;;;;;5053375;28;20256;-64
2023/10/25 08:50:06;;;;;;;5.22;2.60;;;10.80;99.90;;;;;;5053245;28;20206;-64
2023/10/25 08:52:37;;;;;;;3.35;2.53;;;10.70;99.90;;;;;;5053225;28;20182;-65
2023/10/25 08:55:06;;;;;;;4.38;3.80;;;10.80;99.90;;;;;;5053371;28;20299;-64
2023/10/25 08:57:32;;;;;;;4.43;2.90;;;10.70;99.90;;;;;;5053207;28;20651;-64
2023/10/25 08:59:58;;;;;;;3.90;3.53;;;10.70;99.90;;;;;;5053251;28;20179;-64
2023/10/25 09:02:23;;;;;;;3.58;3.20;;;10.70;99.90;;;;;;5053201;28;20171;-64
2023/10/25 09:05:00;;;;;;;5.57;2.50;;;10.80;99.90;;;;;;5053103;28;20183;-64
2023/10/25 09:07:30;;;;;;;2.95;2.50;;;10.90;99.90;;;;;;5053265;28;20369;-65
2023/10/25 09:09:56;;;;;;;4.43;2.67;;;10.90;99.90;;;;;;5053273;28;20178;-64
2023/10/25 09:12:23;;;;;;;4.13;2.70;;;10.90;99.90;;;;;;5053136;28;20167;-64
2023/10/25 09:14:49;;;;;;;5.25;2.50;;;11.00;99.90;;;;;;5053060;28;20536;-64
2023/10/25 09:17:15;;;;;;;3.03;2.70;;;10.90;99.90;;;;;;5053297;28;20183;-64
2023/10/25 09:19:45;;;;;;;4.13;2.53;;;10.90;99.90;;;;;;5052893;28;20174;-63
2023/10/25 09:22:26;;;;;;;3.67;2.55;;;11.00;99.90;;;;;;5053410;28;20707;-64
2023/10/25 09:24:58;;;;;;;5.45;4.95;;;10.90;99.90;;;;;;5057125;28;20178;-64
2023/10/25 09:27:26;;;;;;;8.73;7.88;;;10.90;99.90;;;;;;5057039;28;20225;-64
2023/10/25 09:29:52;;;;;;;4.40;3.40;;;10.90;99.90;;;;;;5056905;28;20175;-65
2023/10/25 09:32:20;;;;;;;3.85;3.35;;;10.90;99.90;;;;;;5057014;28;20179;-64
2023/10/25 09:34:50;;;;;;;5.03;3.88;;;10.90;99.90;;;;;;5056907;28;20285;-64
2023/10/25 09:37:15;;;;;;;4.70;2.80;;;10.90;99.90;;;;;;5056942;28;20278;-62
2023/10/25 09:39:41;;;;;;;3.88;2.90;;;10.80;99.90;;;;;;5056832;28;20704;-64
2023/10/25 09:42:12;;;;;;;3.30;3.00;;;10.90;99.90;;;;;;5055590;28;20246;-64
2023/10/25 09:44:48;;;;;;;3.72;2.70;;;10.90;99.90;;;;;;5056601;28;20209;-64
2023/10/25 09:47:16;;;;;;;3.30;2.85;;;10.90;99.90;;;;;;5056925;28;20273;-64
2023/10/25 09:49:44;;;;;;;4.38;3.00;;;10.90;99.90;;;;;;5056739;28;20171;-64
2023/10/25 09:52:20;;;;;;;3.95;3.30;;;11.00;99.90;;;;;;5056646;28;20171;-64
2023/10/25 09:54:53;;;;;;;4.50;4.00;;;11.10;99.90;;;;;;5056434;28;20255;-65
2023/10/25 09:57:19;;;;;;;3.97;3.42;;;11.10;99.90;;;;;;5056376;28;20179;-65
2023/10/25 09:59:46;;;;;;;3.78;3.47;;;11.10;99.90;;;;;;5056400;28;20548;-64
2023/10/25 10:02:31;;;;;;;4.30;3.90;;;11.20;99.90;;;;;;5056407;28;20179;-64
2023/10/25 10:05:02;;;;;;;3.78;3.35;;;11.20;99.90;;;;;;5056415;28;20202;-64
2023/10/25 10:07:47;;;;;;;4.00;3.70;;;11.10;99.90;;;;;;5056226;28;20171;-63
2023/10/25 10:10:22;;;;;;;4.25;3.53;;;11.10;99.90;;;;;;5056169;28;20194;-64
2023/10/25 10:12:48;;;;;;;6.63;6.03;;;11.10;99.90;;;;;;5056221;28;20175;-64
2023/10/25 10:15:14;;;;;;;8.85;8.07;;;11.10;99.90;;;;;;5056150;28;20202;-65
2023/10/25 10:17:44;;;;;;;14.40;13.40;;;11.20;99.90;;;;;;5056082;28;20198;-64
2023/10/25 10:20:29;;;;;;;7.85;7.25;;;11.20;99.90;;;;;;5055675;28;20223;-64
2023/10/25 10:23:06;;;;;;;10.32;9.52;;;11.30;99.90;;;;;;5056148;28;20663;-64
2023/10/25 10:25:45;;;;;;;6.38;5.78;;;11.20;99.90;;;;;;5056010;28;20191;-64
2023/10/25 10:28:11;;;;;;;6.50;6.00;;;11.10;99.90;;;;;;5055914;28;20178;-64
2023/10/25 10:30:37;;;;;;;7.60;6.90;;;11.10;99.90;;;;;;5056051;28;20528;-64
2023/10/25 10:33:04;;;;;;;7.63;6.93;;;11.10;99.90;;;;;;5055723;28;20174;-65
2023/10/25 10:35:33;;;;;;;7.35;6.82;;;11.00;99.90;;;;;;5055778;28;20211;-64
2023/10/25 10:37:59;;;;;;;7.80;7.10;;;11.00;99.90;;;;;;5055750;28;20179;-64
2023/10/25 10:40:26;;;;;;;6.85;6.00;;;11.10;99.90;;;;;;5055616;28;20537;-64
2023/10/25 10:42:52;;;;;;;7.13;6.40;;;11.20;99.90;;;;;;5055557;28;20262;-64
2023/10/25 10:45:19;;;;;;;17.73;15.98;;;11.20;99.90;;;;;;5055507;28;20552;-65
2023/10/25 10:47:55;;;;;;;14.73;13.52;;;11.30;99.90;;;;;;5055645;28;20210;-64
2023/10/25 10:50:23;;;;;;;10.27;8.00;;;11.30;99.90;;;;;;5055363;28;20628;-64
2023/10/25 10:52:50;;;;;;;12.10;10.90;;;11.40;99.90;;;;;;5055524;28;20194;-65
2023/10/25 10:55:20;;;;;;;12.18;11.25;;;11.40;99.90;;;;;;5055359;28;20203;-63
2023/10/25 10:57:47;;;;;;;7.78;7.05;;;11.40;99.90;;;;;;5055291;28;20186;-64
2023/10/25 11:00:16;;;;;;;8.82;8.07;;;11.40;99.90;;;;;;5055237;28;20600;-64
2023/10/25 11:02:45;;;;;;;9.32;8.50;;;11.40;99.90;;;;;;5055309;28;20517;-65
2023/10/25 11:05:15;;;;;;;9.88;9.07;;;11.50;99.90;;;;;;5055256;28;20182;-64
2023/10/25 11:07:42;;;;;;;9.68;8.82;;;11.50;99.90;;;;;;5055121;28;20227;-64
2023/10/25 11:10:10;;;;;;;7.30;6.80;;;11.50;99.90;;;;;;5055025;28;20605;-64
2023/10/25 11:12:37;;;;;;;8.65;7.95;;;11.60;99.90;;;;;;5055214;28;20255;-64
2023/10/25 11:15:04;;;;;;;6.57;5.97;;;11.60;99.90;;;;;;5055056;28;20198;-64
2023/10/25 11:17:31;;;;;;;6.43;5.93;;;11.60;99.90;;;;;;5055074;28;20167;-64
2023/10/25 11:19:56;;;;;;;8.48;7.68;;;11.60;99.90;;;;;;5054764;28;20172;-64
2023/10/25 11:22:22;;;;;;;9.48;8.80;;;11.70;99.90;;;;;;5054902;28;20262;-64
2023/10/25 11:24:50;;;;;;;10.15;9.35;;;11.70;99.90;;;;;;5054716;28;20662;-65
2023/10/25 11:27:16;;;;;;;6.30;5.88;;;11.70;99.90;;;;;;5054928;28;20217;-64
2023/10/25 11:29:42;;;;;;;5.88;5.38;;;11.80;99.90;;;;;;5054822;28;20262;-64
2023/10/25 11:32:14;;;;;;;6.10;5.60;;;11.80;99.90;;;;;;5054830;28;20605;-64
2023/10/25 11:34:47;;;;;;;6.80;6.30;;;11.80;99.90;;;;;;5054623;28;20250;-63
2023/10/25 11:37:12;;;;;;;6.18;5.78;;;11.80;99.90;;;;;;5054572;28;20171;-65
2023/10/25 11:39:58;;;;;;;15.65;14.35;;;11.80;99.90;;;;;;5054723;28;20171;-64
2023/10/25 11:42:32;;;;;;;13.68;12.57;;;11.80;99.90;;;;;;5054611;28;20198;-65
2023/10/25 11:45:04;;;;;;;24.52;22.73;;;11.80;99.90;;;;;;5053823;28;20194;-64
2023/10/25 11:47:32;;;;;;;17.65;16.25;;;11.90;99.90;;;;;;5054329;28;20225;-64
2023/10/25 11:50:03;;;;;;;17.92;16.63;;;12.00;99.90;;;;;;5054512;28;20175;-64
2023/10/25 11:52:30;;;;;;;13.13;12.13;;;12.00;99.90;;;;;;5054515;28;20526;-64
2023/10/25 11:54:58;;;;;;;11.25;10.38;;;11.90;99.90;;;;;;5054274;28;20720;-64
2023/10/25 11:57:25;;;;;;;16.35;14.95;;;11.80;99.90;;;;;;5054178;28;20187;-65
2023/10/25 11:59:51;;;;;;;21.52;19.55;;;11.90;99.90;;;;;;5054225;28;20172;-65
2023/10/25 12:02:20;;;;;;;13.20;12.10;;;11.90;99.90;;;;;;5053985;28;20274;-64
2023/10/25 12:04:47;;;;;;;10.40;9.60;;;11.80;99.90;;;;;;5054278;28;20203;-65
2023/10/25 12:07:12;;;;;;;13.70;12.52;;;11.90;99.90;;;;;;5054193;28;20186;-64
2023/10/25 12:09:39;;;;;;;12.45;11.55;;;11.90;99.90;;;;;;5054079;28;20757;-64
2023/10/25 12:12:05;;;;;;;11.07;10.18;;;11.90;99.90;;;;;;5053936;28;20644;-64
2023/10/25 12:14:31;;;;;;;11.00;10.20;;;12.00;99.90;;;;;;5053671;28;20194;-65
2023/10/25 12:16:58;;;;;;;9.40;8.70;;;12.00;99.90;;;;;;5053675;28;20191;-64
2023/10/25 12:19:24;;;;;;;10.15;9.35;;;11.90;99.90;;;;;;5053948;28;20175;-65
2023/10/25 12:21:54;;;;;;;9.70;9.00;;;12.00;99.90;;;;;;5053898;28;20578;-65
2023/10/25 12:24:21;;;;;;;11.52;10.73;;;12.00;99.90;;;;;;5053785;28;20180;-65
2023/10/25 12:26:47;;;;;;;10.77;9.98;;;12.00;99.90;;;;;;5053609;28;20245;-65
2023/10/25 12:29:12;;;;;;;10.70;9.90;;;12.10;99.90;;;;;;5053548;28;20214;-64
2023/10/25 12:31:38;;;;;;;11.10;10.30;;;12.20;99.90;;;;;;5052269;28;20182;-65
2023/10/25 12:34:04;;;;;;;10.82;10.02;;;12.30;99.90;;;;;;5053405;28;20192;-64
2023/10/25 12:36:29;;;;;;;10.55;9.73;;;12.30;99.90;;;;;;5053833;28;20182;-65
2023/10/25 12:38:55;;;;;;;11.73;10.90;;;12.30;99.90;;;;;;5053580;28;20175;-64
2023/10/25 12:41:21;;;;;;;9.23;8.52;;;12.40;99.90;;;;;;5053430;28;20636;-64
2023/10/25 12:43:47;;;;;;;9.10;8.40;;;12.40;99.90;;;;;;5053406;28;20175;-65
2023/10/25 12:46:14;;;;;;;8.43;7.82;;;12.40;99.90;;;;;;5053275;28;20183;-65